Time;durP1;ratioP1;P1;durP2;ratioP2;P2;SDS_P1;SDS_P2;PMS_P1;PMS_P2;Temp;Humidity;BMP_temperature;BMP_pressure;BME280_temperature;BME280_humidity;BME280_pressure;Samples;Min_cycle;Max_cycle;Signal;HPM_P1;HPM_P2
2022/04/20 00:02:01;;;;;;;15.75;14.35;;;;;;;3.73;65.84;94589.91;5020680;28;20591;-68
2022/04/20 00:04:29;;;;;;;16.27;14.77;;;;;;;3.71;66.21;94592.19;5038247;28;20183;-69
2022/04/20 00:06:56;;;;;;;16.10;14.50;;;;;;;3.71;66.02;94587.53;5020293;28;20198;-69
2022/04/20 00:09:23;;;;;;;15.95;14.45;;;;;;;3.64;66.50;94584.47;5037737;28;20274;-70
2022/04/20 00:11:51;;;;;;;15.88;14.43;;;;;;;3.53;66.05;94583.19;5020401;28;20210;-68
2022/04/20 00:14:20;;;;;;;17.15;15.55;;;;;;;3.48;66.28;94578.69;5020416;28;20209;-68
2022/04/20 00:16:47;;;;;;;16.63;14.93;;;;;;;3.37;66.78;94580.91;5038207;28;20217;-68
2022/04/20 00:19:15;;;;;;;16.58;15.10;;;;;;;3.38;67.14;94592.66;5037817;28;20488;-68
2022/04/20 00:21:44;;;;;;;13.85;12.55;;;;;;;3.40;66.81;94592.31;5036597;28;20250;-68
2022/04/20 00:24:12;;;;;;;12.35;11.30;;;;;;;3.45;66.83;94592.97;5037643;28;20258;-68
2022/04/20 00:26:40;;;;;;;12.40;11.13;;;;;;;3.51;66.64;94590.88;5037717;28;20199;-68
2022/04/20 00:29:08;;;;;;;13.15;12.02;;;;;;;3.51;66.48;94593.59;5037339;28;20193;-68
2022/04/20 00:31:38;;;;;;;15.60;14.13;;;;;;;3.39;66.78;94588.78;5020378;28;20213;-68
2022/04/20 00:34:08;;;;;;;13.90;12.70;;;;;;;3.24;66.06;94581.88;5037541;28;20189;-68
2022/04/20 00:36:36;;;;;;;14.10;12.80;;;;;;;3.16;66.67;94590.03;5020217;28;20276;-68
2022/04/20 00:39:03;;;;;;;13.57;12.27;;;;;;;3.07;67.02;94585.34;5037179;28;20611;-68
2022/04/20 00:41:34;;;;;;;13.45;12.25;;;;;;;3.09;67.04;94580.41;5037433;28;20210;-68
2022/04/20 00:44:01;;;;;;;13.35;12.15;;;;;;;3.11;66.72;94586.31;5036934;28;20201;-68
2022/04/20 00:46:31;;;;;;;13.80;12.52;;;;;;;3.07;66.89;94588.09;5020090;28;20222;-68
2022/04/20 00:49:05;;;;;;;13.23;12.00;;;;;;;3.05;67.16;94586.78;5037203;28;20205;-69
2022/04/20 00:51:33;;;;;;;13.57;12.38;;;;;;;3.01;66.80;94589.34;5037302;28;20542;-69
2022/04/20 00:54:00;;;;;;;13.30;12.10;;;;;;;2.98;67.55;94587.28;5019688;28;20198;-69
2022/04/20 00:56:29;;;;;;;12.32;11.20;;;;;;;3.02;67.65;94584.72;5037155;28;20234;-69
2022/04/20 00:58:58;;;;;;;12.82;11.63;;;;;;;3.10;67.01;94578.47;5019759;28;20290;-68
2022/04/20 01:01:26;;;;;;;11.80;10.80;;;;;;;3.11;67.33;94582.81;5019412;28;20610;-69
2022/04/20 01:03:53;;;;;;;13.18;11.98;;;;;;;3.04;67.03;94587.91;5036632;28;20191;-69
2022/04/20 01:06:24;;;;;;;11.98;10.85;;;;;;;3.02;67.34;94579.28;5019635;28;20198;-69
2022/04/20 01:08:52;;;;;;;12.73;11.50;;;;;;;2.96;67.02;94580.53;5019781;28;20198;-69
2022/04/20 01:11:19;;;;;;;12.43;11.32;;;;;;;2.94;67.44;94582.75;5018422;28;20205;-69
2022/04/20 01:13:47;;;;;;;13.00;11.80;;;;;;;2.94;67.75;94583.59;5036831;28;20189;-69
2022/04/20 01:16:14;;;;;;;12.30;11.10;;;;;;;2.90;67.41;94579.84;5019372;28;20233;-68
2022/04/20 01:18:46;;;;;;;12.70;11.50;;;;;;;2.96;67.37;94570.44;5002974;28;20206;-69
2022/04/20 01:21:22;;;;;;;13.15;11.95;;;;;;;2.95;67.49;94570.75;5003074;28;20227;-69
2022/04/20 01:23:50;;;;;;;12.43;11.15;;;;;;;2.99;67.45;94577.97;5019010;28;20198;-69
2022/04/20 01:26:18;;;;;;;12.35;11.20;;;;;;;3.02;67.34;94582.78;5019345;28;20210;-69
2022/04/20 01:28:48;;;;;;;12.88;11.73;;;;;;;3.08;67.34;94583.44;5019331;28;20186;-69
2022/04/20 01:31:20;;;;;;;12.90;11.70;;;;;;;3.02;67.47;94587.44;5019468;28;20285;-69
2022/04/20 01:33:48;;;;;;;13.05;11.77;;;;;;;2.95;67.49;94587.09;5036763;28;20225;-70
2022/04/20 01:36:17;;;;;;;12.75;11.65;;;;;;;2.79;67.17;94582.06;5036158;28;20229;-70
2022/04/20 01:38:46;;;;;;;12.55;11.38;;;;;;;2.74;67.71;94587.66;5018826;28;20210;-70
2022/04/20 01:41:13;;;;;;;13.55;12.30;;;;;;;2.77;67.79;94591.69;5036327;28;20194;-70
2022/04/20 01:43:41;;;;;;;12.77;11.75;;;;;;;2.81;67.81;94588.00;5035151;28;20681;-70
2022/04/20 01:46:11;;;;;;;12.73;11.63;;;;;;;2.86;68.05;94589.78;5035904;28;20202;-70
2022/04/20 01:48:40;;;;;;;12.32;11.27;;;;;;;2.90;68.28;94588.03;5018275;28;20611;-70
2022/04/20 01:53:55;;;;;;;13.10;12.02;;;;;;;2.88;68.26;94587.56;5036039;28;20268;-70
2022/04/20 01:56:23;;;;;;;13.73;12.45;;;;;;;2.86;67.89;94590.59;5018494;28;20222;-70
2022/04/20 01:58:51;;;;;;;14.15;12.95;;;;;;;2.81;67.83;94596.19;5035283;28;20273;-70
2022/04/20 02:04:06;;;;;;;12.65;11.48;;;;;;;2.77;68.77;94597.13;5035800;28;20202;-69
2022/04/20 02:06:34;;;;;;;13.40;12.23;;;;;;;2.75;68.83;94591.19;5035361;28;20241;-69
2022/04/20 02:09:03;;;;;;;13.25;12.15;;;;;;;2.75;69.46;94592.00;5018568;28;20531;-69
2022/04/20 02:11:31;;;;;;;12.60;11.52;;;;;;;2.83;69.46;94582.25;5018581;28;20206;-70
2022/04/20 02:13:59;;;;;;;12.55;11.52;;;;;;;2.88;69.27;94595.72;5018028;28;20183;-70
2022/04/20 02:16:27;;;;;;;12.82;11.70;;;;;;;2.92;69.61;94590.47;5035708;28;20264;-70
2022/04/20 02:18:56;;;;;;;12.38;11.38;;;;;;;2.98;69.39;94591.91;5035572;28;20199;-69
2022/04/20 02:21:23;;;;;;;13.27;12.18;;;;;;;2.92;68.97;94585.81;5017792;28;20249;-69
2022/04/20 02:23:51;;;;;;;13.77;12.68;;;;;;;2.92;69.16;94593.97;5034623;28;20202;-71
2022/04/20 02:26:20;;;;;;;13.85;12.65;;;;;;;2.95;69.49;94584.38;5018017;28;20641;-70
2022/04/20 02:28:48;;;;;;;13.02;11.82;;;;;;;3.17;69.88;94584.28;5018126;28;20198;-70
2022/04/20 02:31:16;;;;;;;12.60;11.52;;;;;;;3.40;70.08;94579.47;5017835;28;20198;-70
2022/04/20 02:33:43;;;;;;;13.40;12.23;;;;;;;3.57;68.76;94590.41;5017619;28;20206;-70
2022/04/20 02:36:11;;;;;;;12.05;11.07;;;;;;;3.64;68.14;94572.78;5017589;28;20221;-71
2022/04/20 02:38:40;;;;;;;12.15;11.07;;;;;;;3.71;68.21;94575.81;5017924;28;20549;-69
2022/04/20 02:41:08;;;;;;;11.93;11.02;;;;;;;3.69;67.36;94578.06;5034581;28;20198;-70
2022/04/20 02:43:37;;;;;;;12.20;11.20;;;;;;;3.60;67.93;94570.69;5034932;28;20226;-70
2022/04/20 02:46:05;;;;;;;11.85;10.85;;;;;;;3.57;68.09;94584.94;5034447;28;20206;-69
2022/04/20 02:48:33;;;;;;;11.45;10.50;;;;;;;3.55;68.46;94575.47;5035003;28;20179;-69
2022/04/20 02:51:01;;;;;;;12.68;11.57;;;;;;;3.48;68.60;94577.88;5017534;28;20202;-69
2022/04/20 02:53:29;;;;;;;13.07;11.93;;;;;;;3.45;68.18;94581.25;5035466;28;20190;-69
2022/04/20 02:55:56;;;;;;;12.88;11.77;;;;;;;3.34;68.83;94587.03;5034125;28;20222;-69
2022/04/20 02:58:24;;;;;;;13.00;11.82;;;;;;;3.30;68.61;94586.03;5035123;28;20179;-74
2022/04/20 03:00:57;;;;;;;12.95;11.95;;;;;;;3.26;69.20;94585.06;5017604;28;20668;-72
2022/04/20 03:03:24;;;;;;;13.73;12.63;;;;;;;3.26;69.44;94585.06;5017854;28;20202;-72
2022/04/20 03:05:53;;;;;;;13.85;12.65;;;;;;;3.25;69.51;94586.19;5035061;28;20254;-71
2022/04/20 03:08:23;;;;;;;16.63;15.05;;;;;;;3.25;69.12;94582.66;5017715;28;20190;-72
2022/04/20 03:10:52;;;;;;;18.35;16.65;;;;;;;3.23;69.15;94585.72;5017872;28;20262;-71
2022/04/20 03:13:20;;;;;;;15.82;14.43;;;;;;;3.23;69.38;94596.63;5035150;28;20182;-71
2022/04/20 03:15:48;;;;;;;16.13;14.57;;;;;;;3.24;69.91;94590.06;5034948;28;20201;-68
2022/04/20 03:18:21;;;;;;;16.90;15.40;;;;;;;3.25;69.44;94605.28;5017848;28;20545;-72
2022/04/20 03:20:47;;;;;;;14.80;13.50;;;;;;;3.22;69.49;94589.56;5034091;28;20450;-68
2022/04/20 03:23:16;;;;;;;13.27;11.98;;;;;;;3.31;69.63;94589.59;5035019;28;20262;-72
2022/04/20 03:25:44;;;;;;;13.45;12.40;;;;;;;3.35;69.16;94598.72;5017532;28;20198;-72
2022/04/20 03:28:11;;;;;;;13.75;12.70;;;;;;;3.34;69.19;94586.19;5017480;28;20224;-69
2022/04/20 03:30:39;;;;;;;13.50;12.20;;;;;;;3.31;69.17;94579.47;5034853;28;20191;-66
2022/04/20 03:33:09;;;;;;;13.30;12.20;;;;;;;3.35;69.14;94576.94;5034317;28;20607;-65
2022/04/20 03:35:40;;;;;;;16.08;14.80;;;;;;;3.37;68.70;94580.13;5020836;28;20202;-69
2022/04/20 03:38:07;;;;;;;17.27;15.70;;;;;;;3.35;68.89;94579.66;5020939;28;20654;-69
2022/04/20 03:40:35;;;;;;;15.80;14.57;;;;;;;3.44;68.98;94576.91;5038929;28;20186;-69
2022/04/20 03:43:03;;;;;;;16.30;14.77;;;;;;;3.50;68.57;94571.00;5021347;28;20203;-69
2022/04/20 03:45:32;;;;;;;15.68;14.23;;;;;;;3.47;68.65;94577.09;5021336;28;20205;-67
2022/04/20 03:47:59;;;;;;;14.85;13.65;;;;;;;3.40;69.04;94568.56;5038004;28;20190;-66
2022/04/20 03:50:26;;;;;;;14.98;13.60;;;;;;;3.36;68.73;94573.06;5021614;28;20213;-67
2022/04/20 03:52:56;;;;;;;14.20;12.95;;;;;;;3.34;69.13;94581.56;5021040;28;20198;-67
2022/04/20 03:55:23;;;;;;;14.52;13.32;;;;;;;3.32;69.41;94575.63;5037185;28;20252;-67
2022/04/20 03:57:51;;;;;;;14.73;13.43;;;;;;;3.31;69.54;94575.97;5037816;28;20661;-67
2022/04/20 04:00:20;;;;;;;15.05;13.95;;;;;;;3.31;68.87;94567.78;5037845;28;20652;-67
2022/04/20 04:02:48;;;;;;;14.63;13.25;;;;;;;3.28;69.55;94574.66;5021067;28;20200;-67
2022/04/20 04:05:16;;;;;;;14.43;13.23;;;;;;;3.32;69.70;94577.56;5021019;28;20209;-67
2022/04/20 04:07:44;;;;;;;13.88;12.57;;;;;;;3.34;69.77;94572.56;5037971;28;20182;-67
2022/04/20 04:10:14;;;;;;;17.15;15.55;;;;;;;3.36;69.73;94576.59;5037661;28;20595;-67
2022/04/20 04:12:41;;;;;;;18.30;16.75;;;;;;;3.35;69.51;94566.03;5036658;28;20194;-67
2022/04/20 04:15:10;;;;;;;17.40;15.88;;;;;;;3.38;69.82;94560.72;5038048;28;20280;-67
2022/04/20 04:17:37;;;;;;;19.02;17.33;;;;;;;3.40;69.58;94554.94;5020298;28;20222;-67
2022/04/20 04:20:05;;;;;;;17.40;15.80;;;;;;;3.42;69.29;94557.38;5020356;28;20607;-67
2022/04/20 04:22:33;;;;;;;16.10;14.68;;;;;;;3.42;69.51;94551.91;5019921;28;20245;-67
2022/04/20 04:25:01;;;;;;;17.45;15.90;;;;;;;3.45;69.30;94551.25;5037345;28;20204;-67
2022/04/20 04:27:32;;;;;;;18.75;16.98;;;;;;;3.47;69.55;94551.75;5037630;28;20205;-67
2022/04/20 04:30:01;;;;;;;18.10;16.35;;;;;;;3.50;69.42;94551.91;5019864;28;20207;-67
2022/04/20 04:32:29;;;;;;;19.00;17.17;;;;;;;3.50;69.04;94549.19;5020753;28;20202;-67
2022/04/20 04:34:57;;;;;;;15.18;13.77;;;;;;;3.50;69.31;94548.38;5037637;28;20202;-67
2022/04/20 04:37:26;;;;;;;16.85;15.27;;;;;;;3.50;69.58;94546.47;5020136;28;20237;-67
2022/04/20 04:39:52;;;;;;;15.77;14.38;;;;;;;3.52;69.13;94552.41;5036381;28;20237;-67
2022/04/20 04:42:21;;;;;;;15.35;13.95;;;;;;;3.53;69.56;94570.34;5019915;28;20210;-67
2022/04/20 04:44:51;;;;;;;15.18;13.43;;;;;;;3.54;70.09;94565.69;5019945;28;20201;-67
2022/04/20 04:50:05;;;;;;;18.80;17.20;;;;;;;3.59;70.35;94565.53;5036069;28;20252;-67
2022/04/20 04:52:34;;;;;;;21.70;19.85;;;;;;;3.61;70.37;94566.81;5035719;28;20302;-67
2022/04/20 04:55:00;;;;;;;22.48;20.25;;;;;;;3.63;70.00;94569.22;5036820;28;20598;-67
2022/04/20 04:57:28;;;;;;;21.40;19.27;;;;;;;3.65;70.01;94564.25;5019762;28;20292;-67
2022/04/20 04:59:57;;;;;;;17.90;16.15;;;;;;;3.69;69.73;94573.41;5019368;28;20630;-67
2022/04/20 05:02:25;;;;;;;15.30;13.85;;;;;;;3.68;69.49;94579.19;5037228;28;20186;-67
2022/04/20 05:04:53;;;;;;;15.77;14.07;;;;;;;3.64;69.34;94572.78;5019718;28;20214;-67
2022/04/20 05:07:22;;;;;;;14.38;12.88;;;;;;;3.64;69.59;94581.75;5019791;28;20205;-67
2022/04/20 05:09:50;;;;;;;13.82;12.57;;;;;;;3.64;69.64;94579.03;5036767;28;20194;-67
2022/04/20 05:12:19;;;;;;;14.18;12.88;;;;;;;3.66;69.98;94581.41;5019371;28;20217;-67
2022/04/20 05:14:50;;;;;;;14.73;13.35;;;;;;;3.65;69.79;94593.47;5036969;28;20218;-67
2022/04/20 05:17:18;;;;;;;13.30;12.10;;;;;;;3.57;68.64;94590.41;5036274;28;20288;-67
2022/04/20 05:19:47;;;;;;;12.90;11.85;;;;;;;3.57;69.18;94598.59;5035905;28;20213;-67
2022/04/20 05:22:16;;;;;;;13.35;12.15;;;;;;;3.58;69.40;94607.56;5019107;28;20241;-67
2022/04/20 05:24:45;;;;;;;13.10;11.90;;;;;;;3.58;69.60;94613.81;5035834;28;20190;-67
2022/04/20 05:27:14;;;;;;;14.50;13.20;;;;;;;3.58;68.98;94610.28;5036357;28;20191;-67
2022/04/20 05:29:43;;;;;;;14.35;13.15;;;;;;;3.60;69.64;94606.13;5036479;28;20191;-67
2022/04/20 05:32:11;;;;;;;14.38;13.18;;;;;;;3.58;69.22;94618.47;5019012;28;20198;-68
2022/04/20 05:34:41;;;;;;;13.73;12.63;;;;;;;3.58;69.23;94611.09;5018831;28;20248;-67
2022/04/20 05:42:40;;;;;;;13.05;11.95;;;;;;;3.68;69.00;94590.09;5018568;28;20633;-67
2022/04/20 05:45:09;;;;;;;14.15;13.02;;;;;;;3.69;69.58;94619.75;5036110;28;20195;-67
2022/04/20 05:47:38;;;;;;;14.20;13.05;;;;;;;3.70;69.77;94618.63;5036150;28;20179;-67
2022/04/20 05:50:12;;;;;;;14.00;12.90;;;;;;;3.76;71.12;94601.00;5035717;28;20197;-67
2022/04/20 05:52:40;;;;;;;15.25;14.05;;;;;;;3.82;70.86;94615.28;5036165;28;20193;-67
2022/04/20 05:55:08;;;;;;;14.15;13.05;;;;;;;3.83;70.22;94630.53;5035975;28;20202;-67
2022/04/20 05:57:36;;;;;;;14.93;13.63;;;;;;;3.83;70.59;94612.22;5018172;28;20213;-67
2022/04/20 06:00:08;;;;;;;13.38;12.30;;;;;;;3.78;70.61;94617.06;5018057;28;20209;-67
2022/04/20 06:02:36;;;;;;;13.20;12.10;;;;;;;3.77;70.77;94618.97;5018533;28;20195;-67
2022/04/20 06:05:04;;;;;;;14.20;13.00;;;;;;;3.80;70.46;94631.97;5018604;28;20202;-67
2022/04/20 06:07:33;;;;;;;12.93;11.93;;;;;;;3.79;70.70;94633.09;5018177;28;20320;-67
2022/04/20 06:09:59;;;;;;;14.13;12.82;;;;;;;3.78;70.88;94633.44;5035210;28;20518;-67
2022/04/20 06:12:26;;;;;;;14.43;13.23;;;;;;;3.78;71.67;94620.59;5035807;28;20202;-67
2022/04/20 06:14:54;;;;;;;15.60;14.30;;;;;;;3.77;71.19;94627.13;5018312;28;20202;-66
2022/04/20 06:17:23;;;;;;;15.75;14.45;;;;;;;3.70;71.40;94621.38;5018121;28;20214;-67
2022/04/20 06:19:50;;;;;;;15.27;14.07;;;;;;;3.72;72.00;94616.41;5018425;28;20213;-67
2022/04/20 06:22:18;;;;;;;14.88;13.68;;;;;;;3.72;72.75;94619.13;5035459;28;20234;-67
2022/04/20 06:24:50;;;;;;;14.95;13.75;;;;;;;3.70;72.62;94613.19;5035396;28;20195;-67
2022/04/20 06:27:17;;;;;;;15.32;14.13;;;;;;;3.68;72.88;94603.72;5035460;28;20187;-67
2022/04/20 06:29:46;;;;;;;15.52;14.02;;;;;;;3.69;72.94;94603.41;5018157;28;20205;-67
2022/04/20 06:32:14;;;;;;;15.80;14.45;;;;;;;3.70;72.39;94609.66;5035019;28;20195;-67
2022/04/20 06:34:41;;;;;;;16.38;14.98;;;;;;;3.65;72.30;94602.44;5018229;28;20203;-67
2022/04/20 06:37:10;;;;;;;16.13;14.82;;;;;;;3.64;72.53;94603.56;5035124;28;20218;-67
2022/04/20 06:39:40;;;;;;;18.08;16.45;;;;;;;3.66;72.53;94601.31;5035159;28;20190;-67
2022/04/20 06:42:09;;;;;;;17.83;16.25;;;;;;;3.62;72.47;94603.88;5018159;28;20273;-67
2022/04/20 06:44:37;;;;;;;18.83;17.13;;;;;;;3.57;72.10;94608.69;5035241;28;20190;-66
2022/04/20 06:47:06;;;;;;;18.83;17.13;;;;;;;3.58;73.04;94613.03;5017874;28;20202;-67
2022/04/20 06:49:33;;;;;;;19.45;17.55;;;;;;;3.62;72.59;94611.25;5035032;28;20198;-67
2022/04/20 07:00:25;;;;;;;18.23;16.55;;;;;;;3.57;73.15;94593.13;5017381;28;20182;-67
2022/04/20 07:02:59;;;;;;;18.52;17.00;;;;;;;3.61;73.20;94588.63;5016994;28;20217;-67
2022/04/20 07:05:28;;;;;;;18.60;17.00;;;;;;;3.62;72.83;94583.97;5017870;28;20261;-67
2022/04/20 07:07:55;;;;;;;18.83;17.23;;;;;;;3.64;73.27;94586.41;5034949;28;20205;-67
2022/04/20 07:10:23;;;;;;;18.95;17.35;;;;;;;3.66;73.46;94595.06;5020707;28;20198;-67
2022/04/20 07:12:53;;;;;;;18.73;17.23;;;;;;;3.66;73.93;94612.22;5021347;28;20198;-67
2022/04/20 07:15:21;;;;;;;18.10;16.52;;;;;;;3.70;73.77;94609.66;5038979;28;20191;-67
2022/04/20 07:17:48;;;;;;;17.92;16.30;;;;;;;3.70;74.20;94613.19;5038783;28;20221;-67
2022/04/20 07:20:18;;;;;;;18.75;17.13;;;;;;;3.77;74.29;94615.44;5021569;28;20198;-67
2022/04/20 07:22:48;;;;;;;18.90;17.15;;;;;;;3.79;74.50;94619.44;5020318;28;20274;-67
2022/04/20 07:25:17;;;;;;;18.38;16.67;;;;;;;3.80;74.23;94621.03;5038633;28;20186;-67
2022/04/20 07:27:47;;;;;;;16.75;15.43;;;;;;;3.82;74.03;94610.63;5021523;28;20221;-67
2022/04/20 07:30:16;;;;;;;18.15;16.55;;;;;;;3.81;73.63;94616.38;5038636;28;20326;-67
2022/04/20 07:32:46;;;;;;;17.65;16.25;;;;;;;3.79;73.78;94605.81;5038369;28;20187;-67
2022/04/20 07:35:14;;;;;;;19.38;17.77;;;;;;;3.82;73.57;94607.91;5021027;28;20199;-67
2022/04/20 07:37:42;;;;;;;19.20;17.60;;;;;;;3.84;73.65;94605.63;5037330;28;20222;-67
2022/04/20 07:40:12;;;;;;;19.52;17.83;;;;;;;3.84;73.78;94611.09;5021003;28;20268;-67
2022/04/20 07:42:40;;;;;;;18.77;17.27;;;;;;;3.84;73.91;94611.09;5038487;28;20231;-67
2022/04/20 07:45:08;;;;;;;18.27;16.75;;;;;;;3.81;73.61;94610.94;5038190;28;20508;-67
2022/04/20 07:47:38;;;;;;;18.25;16.85;;;;;;;3.77;73.52;94612.69;5038114;28;20603;-67
2022/04/20 07:50:23;;;;;;;18.02;16.58;;;;;;;3.74;74.20;94608.72;5020814;28;20202;-67
2022/04/20 07:52:53;;;;;;;18.23;16.65;;;;;;;3.76;74.34;94617.38;5038016;28;20206;-67
2022/04/20 07:55:24;;;;;;;18.23;16.63;;;;;;;3.75;73.66;94618.50;5038490;28;20185;-67
2022/04/20 07:57:52;;;;;;;18.17;16.77;;;;;;;3.67;73.52;94611.13;5037877;28;20241;-67
2022/04/20 08:00:22;;;;;;;17.75;16.25;;;;;;;3.61;73.71;94601.47;5020649;28;20225;-67
2022/04/20 08:03:08;;;;;;;18.38;16.92;;;;;;;3.56;74.10;94607.09;5037934;28;20529;-67
2022/04/20 08:05:38;;;;;;;18.77;17.17;;;;;;;3.55;73.73;94594.56;5020485;28;20190;-67
2022/04/20 08:08:05;;;;;;;17.77;16.27;;;;;;;3.55;74.55;94595.38;5037606;28;20209;-67
2022/04/20 08:10:33;;;;;;;18.77;17.17;;;;;;;3.53;74.24;94599.56;5020768;28;20186;-67
2022/04/20 08:14:09;;;;;;;19.92;18.33;;;;;;;3.49;74.27;94587.69;5037830;28;20625;-68
2022/04/20 08:15:50;;;;;;;19.95;18.35;;;;;;;3.49;74.18;94587.69;5020692;28;20198;-67
2022/04/20 08:18:20;;;;;;;19.65;18.05;;;;;;;3.46;74.33;94593.78;5020377;28;20230;-67
2022/04/20 08:20:48;;;;;;;21.63;19.83;;;;;;;3.42;73.84;94590.09;5020132;28;20202;-67
2022/04/20 08:23:17;;;;;;;19.33;17.92;;;;;;;3.45;74.21;94578.50;5036400;28;20226;-67
2022/04/20 08:25:46;;;;;;;17.45;16.02;;;;;;;3.48;74.40;94575.94;5037880;28;20494;-67
2022/04/20 08:28:17;;;;;;;19.02;17.55;;;;;;;3.51;74.21;94569.88;5037574;28;20186;-67
2022/04/20 08:30:50;;;;;;;19.08;17.48;;;;;;;3.52;74.58;94574.22;5037427;28;20241;-67
2022/04/20 08:33:21;;;;;;;18.42;17.00;;;;;;;3.57;74.35;94562.34;5020024;28;20210;-67
2022/04/20 08:35:49;;;;;;;20.05;18.35;;;;;;;3.65;74.50;94574.38;5037564;28;20210;-67
2022/04/20 08:38:17;;;;;;;19.60;18.10;;;;;;;3.67;74.41;94564.75;5019933;28;20226;-67
2022/04/20 08:40:46;;;;;;;20.02;18.50;;;;;;;3.76;74.29;94548.38;5037428;28;20194;-67
2022/04/20 08:43:14;;;;;;;19.15;17.75;;;;;;;3.77;73.96;94553.50;5037099;28;20186;-67
2022/04/20 08:45:43;;;;;;;19.20;17.63;;;;;;;3.78;74.23;94541.47;5036639;28;20205;-67
2022/04/20 08:48:11;;;;;;;20.35;18.77;;;;;;;3.75;74.61;94547.56;5019990;28;20194;-67
2022/04/20 08:50:41;;;;;;;18.85;17.42;;;;;;;3.78;74.68;94532.50;5020460;28;20212;-67
2022/04/20 08:53:11;;;;;;;20.83;19.15;;;;;;;3.81;74.36;94543.56;5020097;28;20202;-67
2022/04/20 08:55:42;;;;;;;20.88;19.25;;;;;;;3.86;74.26;94540.66;5037210;28;20193;-67
2022/04/20 08:58:10;;;;;;;21.92;20.13;;;;;;;3.89;74.80;94547.41;5019655;28;20218;-67
2022/04/20 09:00:37;;;;;;;20.63;18.98;;;;;;;3.91;74.62;94545.13;5036976;28;20194;-67
2022/04/20 09:03:06;;;;;;;21.55;19.75;;;;;;;3.91;74.81;94539.69;5019547;28;20209;-67
2022/04/20 09:05:35;;;;;;;19.30;17.80;;;;;;;3.93;75.25;94533.91;5037012;28;20262;-67
2022/04/20 09:08:14;;;;;;;18.60;17.00;;;;;;;4.01;75.42;94531.16;5019225;28;20605;-67
2022/04/20 09:10:44;;;;;;;20.15;18.55;;;;;;;4.08;74.91;94533.41;5036605;28;20190;-67
2022/04/20 09:13:13;;;;;;;20.45;18.75;;;;;;;4.13;75.00;94527.75;5036613;28;20248;-67
2022/04/20 09:15:41;;;;;;;20.60;19.00;;;;;;;4.17;74.94;94516.97;5035899;28;20203;-67
2022/04/20 09:18:10;;;;;;;19.77;18.27;;;;;;;4.21;75.61;94526.13;5019191;28;20218;-66
2022/04/20 09:20:39;;;;;;;21.60;19.70;;;;;;;4.27;75.33;94505.72;5019329;28;20202;-67
2022/04/20 09:23:08;;;;;;;22.95;21.25;;;;;;;4.31;76.05;94510.19;5018761;28;20265;-66
2022/04/20 09:25:40;;;;;;;24.05;22.15;;;;;;;4.38;75.35;94487.84;5019254;28;20241;-66
2022/04/20 09:28:08;;;;;;;24.25;22.45;;;;;;;4.41;75.64;94505.50;5019177;28;20198;-67
2022/04/20 09:30:39;;;;;;;23.63;21.63;;;;;;;4.45;76.37;94503.72;5018850;28;20610;-67
2022/04/20 09:33:10;;;;;;;24.55;22.52;;;;;;;4.44;76.09;94511.13;5035413;28;20206;-66
2022/04/20 09:35:45;;;;;;;23.73;21.85;;;;;;;4.44;76.77;94497.47;5017862;28;20627;-66
2022/04/20 09:38:15;;;;;;;24.33;22.42;;;;;;;4.51;76.39;94499.69;5018903;28;20267;-66
2022/04/20 09:40:44;;;;;;;23.58;21.60;;;;;;;4.56;76.81;94492.09;5019178;28;20214;-66
2022/04/20 09:43:17;;;;;;;24.38;22.42;;;;;;;4.59;76.70;94494.19;5018701;28;20209;-67
2022/04/20 09:45:44;;;;;;;20.63;18.83;;;;;;;4.67;76.63;94487.06;5035909;28;20217;-67
2022/04/20 09:51:11;;;;;;;16.60;15.15;;;;;;;4.71;76.70;94473.56;5019123;28;20213;-67
2022/04/20 09:53:40;;;;;;;15.82;14.52;;;;;;;4.77;76.55;94483.16;5018487;28;20198;-66
2022/04/20 09:56:20;;;;;;;15.38;14.07;;;;;;;4.84;76.42;94488.91;5018594;28;20199;-66
2022/04/20 09:58:59;;;;;;;27.95;25.55;;;;;;;4.86;76.76;94492.09;5018900;28;20222;-67
2022/04/20 10:01:31;;;;;;;38.72;35.55;;;;;;;4.80;76.71;94488.78;5018561;28;20197;-67
2022/04/20 10:03:59;;;;;;;39.97;36.60;;;;;;;4.76;76.84;94490.56;5035808;28;20190;-67
2022/04/20 10:06:26;;;;;;;39.78;36.45;;;;;;;4.71;76.65;94485.28;5018609;28;20212;-67
2022/04/20 10:08:54;;;;;;;40.35;37.13;;;;;;;4.67;76.01;94478.06;5018984;28;20210;-66
2022/04/20 10:11:24;;;;;;;29.48;27.02;;;;;;;4.64;75.78;94481.47;5018291;28;20681;-67
2022/04/20 10:16:39;;;;;;;30.95;28.45;;;;;;;4.69;77.69;94479.34;5017286;28;20220;-67
2022/04/20 10:19:09;;;;;;;30.65;28.05;;;;;;;4.74;77.10;94473.69;5017985;28;20279;-66
2022/04/20 10:21:46;;;;;;;31.40;28.70;;;;;;;4.74;76.82;94468.22;5018032;28;20230;-66
2022/04/20 10:24:19;;;;;;;29.80;27.30;;;;;;;4.77;76.78;94453.13;5018222;28;20194;-66
2022/04/20 10:26:50;;;;;;;28.25;26.02;;;;;;;4.83;77.47;94458.06;5017934;28;20286;-66
2022/04/20 10:29:23;;;;;;;27.55;25.25;;;;;;;4.87;77.79;94450.00;5018128;28;20198;-67
2022/04/20 10:31:58;;;;;;;23.83;21.73;;;;;;;4.92;77.13;94436.13;5035271;28;20197;-67
2022/04/20 10:34:26;;;;;;;23.05;21.08;;;;;;;4.96;77.40;94439.78;5035467;28;20213;-66
2022/04/20 10:36:58;;;;;;;25.73;23.60;;;;;;;4.98;77.02;94448.47;5035535;28;20213;-66
2022/04/20 10:39:29;;;;;;;29.60;27.10;;;;;;;4.97;77.01;94444.13;5018132;28;20316;-66
2022/04/20 10:42:21;;;;;;;31.00;28.30;;;;;;;4.96;77.28;94436.25;5017336;28;20271;-66
2022/04/20 10:44:57;;;;;;;31.25;28.70;;;;;;;4.97;77.52;94430.47;5034762;28;20213;-66
2022/04/20 10:47:27;;;;;;;34.67;31.80;;;;;;;4.98;77.47;94434.00;5034665;28;20201;-67
2022/04/20 10:49:57;;;;;;;34.55;31.50;;;;;;;4.97;77.40;94425.00;5034784;28;20190;-67
2022/04/20 10:52:28;;;;;;;33.88;30.88;;;;;;;5.01;77.53;94419.66;5018226;28;20592;-66
2022/04/20 10:54:56;;;;;;;33.63;30.55;;;;;;;5.02;77.23;94415.81;5017519;28;20652;-67
2022/04/20 10:57:36;;;;;;;33.33;30.33;;;;;;;5.04;77.18;94411.59;5018381;28;20190;-67
2022/04/20 11:00:34;;;;;;;31.50;28.92;;;;;;;5.04;76.85;94422.53;5001259;28;20214;-67
2022/04/20 11:03:06;;;;;;;27.98;25.55;;;;;;;5.01;76.80;94416.94;5034953;28;20191;-66
2022/04/20 11:05:34;;;;;;;26.60;24.33;;;;;;;5.03;77.14;94434.59;5035320;28;20202;-66
2022/04/20 11:08:05;;;;;;;25.42;23.42;;;;;;;5.00;76.25;94420.81;5017444;28;20194;-66
2022/04/20 11:10:34;;;;;;;24.15;22.25;;;;;;;4.99;76.78;94425.47;5034949;28;20202;-66
2022/04/20 11:19:08;;;;;;;26.02;23.73;;;;;;;4.95;76.15;94432.75;4986952;28;20219;-66
2022/04/20 11:21:36;;;;;;;24.58;22.50;;;;;;;4.94;77.00;94433.06;4977410;28;20270;-66
2022/04/20 11:24:11;;;;;;;23.02;21.13;;;;;;;4.91;77.02;94436.47;4993628;28;20203;-66
2022/04/20 11:26:40;;;;;;;25.65;23.45;;;;;;;4.92;77.11;94443.53;4993839;28;20207;-66
2022/04/20 11:29:15;;;;;;;25.38;23.25;;;;;;;4.93;77.13;94447.84;4993888;28;20290;-66
2022/04/20 11:31:45;;;;;;;26.13;23.92;;;;;;;4.91;76.65;94439.22;4993687;28;20211;-66
2022/04/20 11:34:16;;;;;;;24.52;22.52;;;;;;;4.88;76.63;94434.41;4977676;28;20330;-66
2022/04/20 11:36:48;;;;;;;23.75;21.85;;;;;;;4.86;76.45;94431.97;4977382;28;20216;-66
2022/04/20 11:39:18;;;;;;;25.63;23.52;;;;;;;4.82;75.68;94434.56;4977357;28;20219;-65
2022/04/20 11:41:47;;;;;;;22.98;21.08;;;;;;;4.82;76.30;94434.56;4993638;28;20192;-66
2022/04/20 11:44:23;;;;;;;20.58;18.92;;;;;;;4.80;75.75;94436.06;4993678;28;20231;-66
2022/04/20 11:46:52;;;;;;;18.92;17.42;;;;;;;4.75;75.70;94436.25;4993591;28;20206;-66
2022/04/20 11:49:21;;;;;;;18.23;16.83;;;;;;;4.67;75.26;94428.91;4994150;28;20199;-66
2022/04/20 11:51:54;;;;;;;17.67;16.27;;;;;;;4.64;75.77;94435.81;5033554;28;20194;-66
2022/04/20 11:54:23;;;;;;;17.48;16.17;;;;;;;4.56;74.88;94442.94;5017262;28;20226;-66
2022/04/20 11:56:51;;;;;;;17.92;16.52;;;;;;;4.51;75.58;94445.88;5021357;28;20214;-66
2022/04/20 11:59:24;;;;;;;16.52;15.32;;;;;;;4.46;75.04;94450.72;5037947;28;20206;-66
2022/04/20 12:01:54;;;;;;;18.02;16.63;;;;;;;4.36;73.94;94446.44;5037784;28;20607;-66
2022/04/20 12:04:25;;;;;;;18.10;16.83;;;;;;;4.28;74.14;94445.31;5038217;28;20218;-66
2022/04/20 12:06:55;;;;;;;19.88;18.45;;;;;;;4.18;74.03;94447.66;5020730;28;20226;-66
2022/04/20 12:09:22;;;;;;;19.98;18.55;;;;;;;4.11;74.33;94445.41;5037795;28;20485;-66